地図

経路データ

SID SEASON NUMBER BASIN SUBBASIN NAME ISO_TIME NATURE LAT LON WMO_WIND WMO_PRES WMO_AGENCY TRACK_TYPE DIST2LAND LANDFALL IFLAG USA_AGENCY USA_ATCF_ID USA_LAT USA_LON USA_RECORD USA_STATUS USA_WIND USA_PRES USA_SSHS USA_R34_NE USA_R34_SE USA_R34_SW USA_R34_NW USA_R50_NE USA_R50_SE USA_R50_SW USA_R50_NW USA_R64_NE USA_R64_SE USA_R64_SW USA_R64_NW USA_POCI USA_ROCI USA_RMW USA_EYE TOKYO_LAT TOKYO_LON TOKYO_GRADE TOKYO_WIND TOKYO_PRES TOKYO_R50_DIR TOKYO_R50_LONG TOKYO_R50_SHORT TOKYO_R30_DIR TOKYO_R30_LONG TOKYO_R30_SHORT TOKYO_LAND CMA_LAT CMA_LON CMA_CAT CMA_WIND CMA_PRES HKO_LAT HKO_LON HKO_CAT HKO_WIND HKO_PRES NEWDELHI_LAT NEWDELHI_LON NEWDELHI_GRADE NEWDELHI_WIND NEWDELHI_PRES NEWDELHI_CI NEWDELHI_DP NEWDELHI_POCI REUNION_LAT REUNION_LON REUNION_TYPE REUNION_WIND REUNION_PRES REUNION_TNUM REUNION_CI REUNION_RMW REUNION_R34_NE REUNION_R34_SE REUNION_R34_SW REUNION_R34_NW REUNION_R50_NE REUNION_R50_SE REUNION_R50_SW REUNION_R50_NW REUNION_R64_NE REUNION_R64_SE REUNION_R64_SW REUNION_R64_NW BOM_LAT BOM_LON BOM_TYPE BOM_WIND BOM_PRES BOM_TNUM BOM_CI BOM_RMW BOM_R34_NE BOM_R34_SE BOM_R34_SW BOM_R34_NW BOM_R50_NE BOM_R50_SE BOM_R50_SW BOM_R50_NW BOM_R64_NE BOM_R64_SE BOM_R64_SW BOM_R64_NW BOM_ROCI BOM_POCI BOM_EYE BOM_POS_METHOD BOM_PRES_METHOD NADI_LAT NADI_LON NADI_CAT NADI_WIND NADI_PRES WELLINGTON_LAT WELLINGTON_LON WELLINGTON_WIND WELLINGTON_PRES DS824_LAT DS824_LON DS824_STAGE DS824_WIND DS824_PRES TD9636_LAT TD9636_LON TD9636_STAGE TD9636_WIND TD9636_PRES TD9635_LAT TD9635_LON TD9635_WIND TD9635_PRES TD9635_ROCI NEUMANN_LAT NEUMANN_LON NEUMANN_CLASS NEUMANN_WIND NEUMANN_PRES MLC_LAT MLC_LON MLC_CLASS MLC_WIND MLC_PRES USA_GUST BOM_GUST BOM_GUST_PER REUNION_GUST REUNION_GUST_PER USA_SEAHGT USA_SEARAD_NE USA_SEARAD_SE USA_SEARAD_SW USA_SEARAD_NW STORM_SPEED STORM_DIR
1970233N13231 1970 93 EP MM MAGGIE 1970-08-20 12:00:00 TS 12.6000 -129.400 25 hurdat_epa main 2256 2256 O________OO___ hurdat_epa EP131970 12.6000 -129.400 TD 25 -1 12.6000 -129.400 TC 25 12.6000 -129.400 2 12 289
1970233N13231 1970 93 EP MM MAGGIE 1970-08-20 15:00:00 TS 12.8051 -130.001 main 2281 2281 P________PP___ EP131970 12.8052 -129.992 TD 35 0 12.8052 -129.992 TC 35 12.8045 -130.036 2 12 289
1970233N13231 1970 93 EP MM MAGGIE 1970-08-20 18:00:00 TS 12.9993 -130.612 45 hurdat_epa main 2307 2307 O________OP___ hurdat_epa EP131970 13.0000 -130.600 TS 45 0 13.0000 -130.600 TC 45 12.9966 -130.659 2 13 287
1970233N13231 1970 93 EP MM MAGGIE 1970-08-20 21:00:00 TS 13.1711 -131.228 main 2335 2335 P________PP___ EP131970 13.1725 -131.222 TS 45 0 13.1725 -131.222 TC 45 13.1653 -131.252 2 12 285
1970233N13231 1970 93 EP MM MAGGIE 1970-08-21 00:00:00 TS 13.3000 -131.800 45 hurdat_epa main 2372 2372 O________OO___ hurdat_epa EP131970 13.3000 -131.800 TS 45 0 13.3000 -131.800 TC 45 13.3000 -131.800 2 10 281
1970233N13231 1970 93 EP MM MAGGIE 1970-08-21 03:00:00 TS 13.3648 -132.277 main 2402 2402 P________PP___ EP131970 13.3573 -132.273 TS 45 0 13.3573 -132.273 TC 45 13.3949 -132.294 2 9 277
1970233N13231 1970 93 EP MM MAGGIE 1970-08-21 06:00:00 TS 13.4128 -132.709 45 hurdat_epa main 2433 2407 O________OP___ hurdat_epa EP131970 13.4000 -132.700 TS 45 0 13.4000 -132.700 TC 45 13.4641 -132.746 2 9 279
1970233N13231 1970 93 EP MM MAGGIE 1970-08-21 09:00:00 TS 13.4992 -133.155 main 2397 2352 P________PP___ EP131970 13.4924 -133.150 TS 45 0 13.4924 -133.150 TC 45 13.5263 -133.175 2 9 282
1970233N13231 1970 93 EP MM MAGGIE 1970-08-21 12:00:00 TS 13.6000 -133.600 45 hurdat_epa main 2352 2308 O________OO___ hurdat_epa EP131970 13.6000 -133.600 TS 45 0 13.6000 -133.600 TC 45 13.6000 -133.600 2 9 283
1970233N13231 1970 93 EP MM MAGGIE 1970-08-21 15:00:00 TS 13.6960 -134.049 main 2308 2253 P________PP___ EP131970 13.6924 -134.050 TS 45 0 13.6924 -134.050 TC 45 13.7103 -134.046 2 9 283
1970233N13231 1970 93 EP MM MAGGIE 1970-08-21 18:00:00 TS 13.8069 -134.499 45 hurdat_epa main 2253 2208 O________OP___ hurdat_epa EP131970 13.8000 -134.500 TS 45 0 13.8000 -134.500 TC 45 13.8346 -134.493 2 9 286
1970233N13231 1970 93 EP MM MAGGIE 1970-08-21 21:00:00 TS 13.9472 -134.949 main 2208 2150 P________PP___ EP131970 13.9424 -134.950 TS 45 0 13.9424 -134.950 TC 45 13.9666 -134.943 2 9 289
1970233N13231 1970 93 EP MM MAGGIE 1970-08-22 00:00:00 TS 14.1000 -135.400 45 hurdat_epa main 2150 2106 O________OO___ hurdat_epa EP131970 14.1000 -135.400 TS 45 0 14.1000 -135.400 TC 45 14.1000 -135.400 2 9 289
1970233N13231 1970 93 EP MM MAGGIE 1970-08-22 03:00:00 TS 14.2525 -135.846 main 2102 2047 P________PP___ EP131970 14.2574 -135.843 TS 45 0 14.2574 -135.843 TC 45 14.2328 -135.860 2 9 288
1970233N13231 1970 93 EP MM MAGGIE 1970-08-22 06:00:00 TS 14.3929 -136.306 45 hurdat_epa main 2047 1993 O________OP___ hurdat_epa EP131970 14.4000 -136.300 TS 45 0 14.4000 -136.300 TC 45 14.3645 -136.328 2 10 285
1970233N13231 1970 93 EP MM MAGGIE 1970-08-22 09:00:00 TS 14.5038 -136.795 main 1993 1938 P________PP___ EP131970 14.5074 -136.793 TS 45 0 14.5074 -136.793 TC 45 14.4890 -136.807 2 10 282
1970233N13231 1970 93 EP MM MAGGIE 1970-08-22 12:00:00 TS 14.6000 -137.300 45 hurdat_epa main 1938 1884 O________OO___ hurdat_epa EP131970 14.6000 -137.300 TS 45 0 14.6000 -137.300 TC 45 14.6000 -137.300 2 10 282
1970233N13231 1970 93 EP MM MAGGIE 1970-08-22 15:00:00 TS 14.7029 -137.799 main 1884 1829 P________PP___ EP131970 14.7073 -137.793 TS 47 0 14.7073 -137.793 TC 47 14.6853 -137.823 2 10 281
1970233N13231 1970 93 EP MM MAGGIE 1970-08-22 18:00:00 TS 14.7915 -138.312 50 hurdat_epa main 1829 1778 O________OP___ hurdat_epa EP131970 14.8000 -138.300 TS 50 0 14.8000 -138.300 TC 50 14.7575 -138.358 2 10 278
1970233N13231 1970 93 EP MM MAGGIE 1970-08-22 21:00:00 TS 14.8452 -138.864 main 1768 1714 P________PP___ EP131970 14.8500 -138.858 TS 47 0 14.8500 -138.858 TC 47 14.8259 -138.889 2 11 276
1970233N13231 1970 93 EP MM MAGGIE 1970-08-23 00:00:00 TS 14.9000 -139.400 45 hurdat_epa main 1714 1670 O________OO___ hurdat_epa EP131970 14.9000 -139.400 TS 45 0 14.9000 -139.400 TC 45 14.9000 -139.400 2 10 279
1970233N13231 1970 93 EP MM MAGGIE 1970-08-23 03:00:00 TS 14.9897 -139.857 main 1659 1615 P________PP___ EP131970 14.9923 -139.865 TS 45 0 14.9923 -139.865 TC 45 14.9794 -139.827 2 9 283
1970233N13231 1970 93 EP CP MAGGIE 1970-08-23 06:00:00 TS 15.0939 -140.289 45 hurdat_epa main 1615 1571 O________OP___ hurdat_epa EP131970 15.1000 -140.300 TS 45 0 15.1000 -140.300 TC 45 15.0682 -140.241 2 9 283
1970233N13231 1970 93 EP CP MAGGIE 1970-08-23 09:00:00 TS 15.1887 -140.718 main 1571 1517 P________PP___ EP131970 15.1921 -140.705 TS 45 0 15.1921 -140.705 TC 45 15.1730 -140.684 2 9 283
1970233N13231 1970 93 EP CP MAGGIE 1970-08-23 12:00:00 TS 15.3000 -141.239 45 hurdat_epa main 1517 1442 O________OO___ hurdat_epa EP131970 15.3000 -141.200 TS 45 0 15.3000 -141.200 TC 45 15.3000 -141.200 2 12 282
1970233N13231 1970 93 EP CP MAGGIE 1970-08-23 15:00:00 TS 15.4396 -141.940 main 1442 1354 P________PP___ EP131970 15.4352 -141.913 TS 45 0 15.4352 -141.913 TC 45 15.4619 -141.846 2 14 282
1970233N13231 1970 93 EP CP MAGGIE 1970-08-23 18:00:00 TS 15.6072 -142.695 45 hurdat_epa main 1354 1276 O________OP___ hurdat_epa EP131970 15.6000 -142.700 TS 45 0 15.6000 -142.700 TC 45 15.6430 -142.567 2 15 285
1970233N13231 1970 93 EP CP MAGGIE 1970-08-23 21:00:00 TS 15.8043 -143.400 main 1276 1198 P________PP___ EP131970 15.7997 -143.408 TS 45 0 15.7997 -143.408 TC 45 15.8274 -143.330 2 14 286
1970233N13231 1970 93 EP CP MAGGIE 1970-08-24 00:00:00 TS 16.0000 -144.100 45 hurdat_epa main 1198 1120 O________OO___ hurdat_epa EP131970 16.0000 -144.100 TS 45 0 16.0000 -144.100 TC 45 16.0000 -144.100 2 14 285
1970233N13231 1970 93 EP CP MAGGIE 1970-08-24 03:00:00 TS 16.1583 -144.796 main 1120 1047 P________PP___ EP131970 16.1647 -144.793 TS 45 0 16.1647 -144.793 TC 45 16.1264 -144.822 2 14 282
1970233N13231 1970 93 EP CP MAGGIE 1970-08-24 06:00:00 TS 16.2902 -145.507 45 hurdat_epa main 1047 973 O________OP___ hurdat_epa EP131970 16.3000 -145.500 TS 45 0 16.3000 -145.500 TC 45 16.2414 -145.544 2 14 279
1970233N13231 1970 93 EP CP MAGGIE 1970-08-24 09:00:00 TS 16.3870 -146.247 main 973 890 P________PP___ EP131970 16.3923 -146.243 TS 45 0 16.3923 -146.243 TC 45 16.3607 -146.269 2 14 278
1970233N13231 1970 93 EP CP MAGGIE 1970-08-24 12:00:00 TS 16.5000 -147.000 45 hurdat_epa main 890 813 O________OO___ hurdat_epa EP131970 16.5000 -147.000 TS 45 0 16.5000 -147.000 TC 45 16.5000 -147.000 2 15 282
1970233N13231 1970 93 EP CP MAGGIE 1970-08-24 15:00:00 TS 16.6863 -147.751 main 803 726 P________PP___ EP131970 16.6847 -147.750 TS 45 0 16.6847 -147.750 TC 45 16.6943 -147.754 2 15 286
1970233N13231 1970 93 EP CP MAGGIE 1970-08-24 18:00:00 TS 16.9012 -148.502 45 hurdat_epa main 726 649 O________OP___ hurdat_epa EP131970 16.9000 -148.500 TS 45 0 16.9000 -148.500 TC 45 16.9070 -148.514 2 15 286
1970233N13231 1970 93 EP CP MAGGIE 1970-08-24 21:00:00 TS 17.1114 -149.265 main 639 563 P________PP___ EP131970 17.1074 -149.265 TS 45 0 17.1074 -149.265 TC 45 17.1162 -149.267 2 15 286
1970233N13231 1970 93 EP CP MAGGIE 1970-08-25 00:00:00 TS 17.3000 -150.000 45 hurdat_epa main 563 501 O________OO___ hurdat_epa EP131970 17.3000 -150.000 TS 45 0 17.3000 -150.000 TC 45 17.3000 -150.000 2 14 284
1970233N13231 1970 93 EP CP MAGGIE 1970-08-25 03:00:00 TS 17.4520 -150.662 main 486 425 P________PP___ EP131970 17.4721 -150.658 TS 45 0 17.4721 -150.658 TC 45 17.4517 -150.685 2 13 282
1970233N13231 1970 93 EP CP MAGGIE 1970-08-25 06:00:00 TS 17.5622 -151.308 45 hurdat_epa main 425 363 O________OP___ hurdat_epa EP131970 17.6000 -151.300 TS 45 0 17.6000 -151.300 TC 45 17.5731 -151.350 2 13 278
1970233N13231 1970 93 EP CP MAGGIE 1970-08-25 09:00:00 TS 17.6390 -151.990 main 363 299 P________PP___ EP131970 17.6797 -151.985 TS 45 0 17.6797 -151.985 TC 45 17.6580 -152.016 2 13 275
1970233N13231 1970 93 EP CP MAGGIE 1970-08-25 12:00:00 TS 17.6667 -152.700 45 hurdat_epa main 299 253 O________OO___ hurdat_epa EP131970 17.7000 -152.700 TS 45 0 17.7000 -152.700 TC 45 17.7000 -152.700 2 14 270
1970233N13231 1970 93 EP CP MAGGIE 1970-08-25 15:00:00 TS 17.6434 -153.451 main 247 208 P________PP___ EP131970 17.6648 -153.443 TS 45 0 17.6648 -153.443 TC 45 17.6941 -153.494 2 14 267
1970233N13231 1970 93 EP CP MAGGIE 1970-08-25 18:00:00 TS 17.5911 -154.216 45 hurdat_epa main 208 168 O________OP___ hurdat_epa EP131970 17.6000 -154.200 TS 45 0 17.6000 -154.200 TC 45 17.6466 -154.298 2 15 266
1970233N13231 1970 93 EP CP MAGGIE 1970-08-25 21:00:00 TS 17.5474 -155.015 main 173 156 P________PP___ EP131970 17.5503 -155.010 TS 45 0 17.5503 -155.010 TC 45 17.5755 -155.053 2 14 266
1970233N13231 1970 93 EP CP MAGGIE 1970-08-26 00:00:00 TS 17.5000 -155.700 45 hurdat_epa main 156 156 O________OO___ hurdat_epa EP131970 17.5000 -155.700 TS 45 0 17.5000 -155.700 TC 45 17.5000 -155.700 2 11 265
1970233N13231 1970 93 EP CP MAGGIE 1970-08-26 03:00:00 TS 17.4499 -156.137 main 173 173 P________PP___ EP131970 17.4495 -156.110 TS 45 0 17.4495 -156.110 TC 45 17.4444 -156.181 2 7 262
1970233N13231 1970 93 EP CP MAGGIE 1970-08-26 06:00:00 TS 17.3985 -156.458 45 hurdat_epa main 187 187 O________OP___ hurdat_epa EP131970 17.4000 -156.400 TS 45 0 17.4000 -156.400 TC 45 17.3908 -156.550 2 7 261
1970233N13231 1970 93 EP CP MAGGIE 1970-08-26 09:00:00 TS 17.3486 -156.824 main 213 213 P________PP___ EP131970 17.3500 -156.765 TS 35 0 17.3500 -156.765 TC 35 17.3418 -156.844 2 7 262
1970233N13231 1970 93 EP CP MAGGIE 1970-08-26 12:00:00 TS 17.3000 -157.150 25 hurdat_epa main 239 239 O________OO___ hurdat_epa EP131970 17.3000 -157.100 TD 25 -1 17.3000 -157.100 TC 25 17.3000 -157.100 6 6 260
1970233N13231 1970 93 EP CP MAGGIE 1970-08-26 15:00:00 TS 17.2465 -157.408 main 261 261 P________PP___ EP131970 17.2424 -157.365 TD 25 -1 17.2424 -157.365 TC 25 17.2669 -157.350 6 5 259
1970233N13231 1970 93 EP CP MAGGIE 1970-08-26 18:00:00 TS 17.2068 -157.633 25 hurdat_epa main 276 276 O________OP___ hurdat_epa EP131970 17.2000 -157.600 TD 25 -1 17.2000 -157.600 TC 25 17.2408 -157.600 6 4 263
1970233N13231 1970 93 EP CP MAGGIE 1970-08-26 21:00:00 TS 17.1950 -157.863 main 299 299 P________PP___ EP131970 17.1901 -157.845 TD 25 -1 17.1901 -157.845 TC 25 17.2193 -157.850 6 4 269
1970233N13231 1970 93 EP CP MAGGIE 1970-08-27 00:00:00 TS 17.2000 -158.100 25 hurdat_epa main 315 O________OO___ hurdat_epa EP131970 17.2000 -158.100 TD 25 -1 17.2000 -158.100 TC 25 17.2000 -158.100 6 5 271

IBTrACS Databaseについて

本データベースは、米国NOAAが公開する1842年以降の世界の熱帯低気圧のベストトラックデータアーカイブInternational Best Track Archive for Climate Stewardship (IBTrACS)を、ウェブで閲覧しやすい形式に変換したものです。

最終更新日:2021-11-26